createdAt,value
2018-04-17T00:00:24.778Z,45.73
2018-04-17T00:05:41.081Z,46.10
2018-04-17T00:08:09.751Z,53.25
2018-04-17T00:10:38.418Z,52.47
2018-04-17T00:13:07.090Z,51.05
2018-04-17T00:15:35.736Z,45.70
2018-04-17T00:18:04.417Z,45.10
2018-04-17T00:20:33.061Z,42.87
2018-04-17T00:23:01.730Z,44.20
2018-04-17T00:25:30.401Z,41.70
2018-04-17T00:27:59.634Z,44.77
2018-04-17T00:30:28.287Z,44.60
2018-04-17T00:32:56.977Z,44.00
2018-04-17T00:35:25.624Z,52.25
2018-04-17T00:37:54.299Z,46.47
2018-04-17T00:40:22.953Z,46.63
2018-04-17T00:42:51.631Z,51.78
2018-04-17T00:45:22.336Z,45.97
2018-04-17T00:47:50.998Z,44.17
2018-04-17T00:50:19.657Z,46.53
2018-04-17T00:52:48.349Z,55.08
2018-04-17T00:55:16.990Z,49.27
2018-04-17T00:57:47.159Z,49.03
2018-04-17T01:00:15.832Z,51.33
2018-04-17T01:02:44.824Z,48.90
2018-04-17T01:05:13.493Z,49.43
2018-04-17T01:07:42.151Z,49.90
2018-04-17T01:10:10.827Z,51.90
2018-04-17T01:12:39.477Z,51.87
2018-04-17T01:15:08.154Z,49.73
2018-04-17T01:17:36.783Z,48.80
2018-04-17T01:20:05.457Z,50.53
2018-04-17T01:22:34.114Z,49.70
2018-04-17T01:25:02.791Z,57.97
2018-04-17T01:27:31.789Z,53.97
2018-04-17T01:30:00.473Z,52.70
2018-04-17T01:32:29.139Z,49.97
2018-04-17T01:34:57.815Z,55.53
2018-04-17T01:37:26.463Z,55.60
2018-04-17T01:39:57.161Z,54.87
2018-04-17T01:42:25.824Z,56.47
2018-04-17T01:44:54.532Z,57.03
2018-04-17T01:47:23.771Z,59.60
2018-04-17T01:49:52.423Z,59.17
2018-04-17T01:52:21.129Z,58.37
2018-04-17T01:54:49.778Z,59.20
2018-04-17T01:57:18.467Z,63.13
2018-04-17T01:59:47.139Z,64.60
2018-04-17T02:02:15.831Z,62.43
2018-04-17T02:04:44.489Z,61.40
2018-04-17T02:07:13.180Z,64.40
2018-04-17T02:09:41.832Z,63.10
2018-04-17T02:12:10.908Z,63.40
2018-04-17T02:14:41.330Z,63.77
2018-04-17T02:17:15.219Z,63.73
2018-04-17T02:19:44.125Z,63.67
2018-04-17T02:22:14.054Z,62.30
2018-04-17T02:24:42.708Z,79.80
2018-04-17T02:27:11.719Z,64.77
2018-04-17T02:29:40.375Z,62.50
2018-04-17T02:32:09.056Z,64.03
2018-04-17T02:34:37.708Z,66.57
2018-04-17T02:37:06.402Z,66.30
2018-04-17T02:39:35.064Z,62.17
2018-04-17T02:42:03.713Z,60.07
2018-04-17T02:44:32.409Z,60.37
2018-04-17T02:47:01.073Z,59.47
2018-04-17T02:49:30.209Z,61.00
2018-04-17T02:51:58.871Z,60.93
2018-04-17T02:54:27.554Z,60.67
2018-04-17T02:56:56.203Z,57.80
2018-04-17T02:59:25.108Z,59.67
2018-04-17T03:01:54.021Z,60.40
2018-04-17T03:04:24.345Z,59.60
2018-04-17T03:06:52.992Z,63.30
2018-04-17T03:09:21.668Z,61.40
2018-04-17T03:11:50.324Z,60.07
2018-04-17T03:14:19.014Z,71.72
2018-04-17T03:16:47.663Z,64.60
2018-04-17T03:19:16.339Z,66.33
2018-04-17T03:21:44.997Z,64.37
2018-04-17T03:24:13.735Z,60.87
2018-04-17T03:26:42.380Z,64.10
2018-04-17T03:29:11.087Z,56.33
2018-04-17T03:31:39.773Z,60.30
2018-04-17T03:34:08.493Z,64.40
2018-04-17T03:36:37.161Z,61.40
2018-04-17T03:39:08.610Z,60.80
2018-04-17T03:41:37.285Z,65.50
2018-04-17T03:44:05.978Z,62.27
2018-04-17T03:46:34.669Z,63.10
2018-04-17T03:49:03.366Z,61.90
2018-04-17T03:51:32.077Z,60.27
2018-04-17T03:54:00.736Z,60.90
2018-04-17T03:56:29.425Z,60.53
2018-04-17T03:58:58.079Z,59.03
2018-04-17T04:01:26.756Z,74.50
2018-04-17T04:03:55.403Z,58.30
2018-04-17T04:06:24.096Z,60.90
2018-04-17T04:08:52.756Z,73.12
2018-04-17T04:11:21.441Z,56.77
2018-04-17T04:13:50.089Z,54.70
2018-04-17T04:16:55.738Z,57.53
2018-04-17T04:20:02.992Z,53.13
2018-04-17T04:23:08.521Z,53.37
2018-04-17T04:25:45.927Z,52.13
2018-04-17T04:28:14.625Z,53.30
2018-04-17T04:30:43.458Z,51.57
2018-04-17T04:33:12.161Z,63.38
2018-04-17T04:35:40.810Z,54.50
2018-04-17T04:38:09.461Z,52.10
2018-04-17T04:40:38.209Z,49.50
2018-04-17T04:43:06.871Z,48.40
2018-04-17T04:45:35.550Z,49.40
2018-04-17T04:48:04.192Z,49.80
2018-04-17T04:50:33.146Z,48.80
2018-04-17T04:53:01.785Z,44.30
2018-04-17T04:55:30.457Z,46.13
2018-04-17T04:57:59.106Z,47.80
2018-04-17T05:00:27.790Z,45.50
2018-04-17T05:02:56.426Z,47.13
2018-04-17T05:05:25.099Z,45.73
2018-04-17T05:07:53.755Z,44.07
2018-04-17T05:10:22.489Z,43.60
2018-04-17T05:12:51.160Z,43.97
2018-04-17T05:15:19.815Z,52.08
2018-04-17T05:17:48.458Z,43.87
2018-04-17T05:20:17.144Z,45.30
2018-04-17T05:22:45.791Z,41.83
2018-04-17T05:25:14.454Z,49.22
2018-04-17T05:27:43.131Z,39.57
2018-04-17T05:30:11.772Z,43.30
2018-04-17T05:32:40.438Z,40.67
2018-04-17T05:35:09.075Z,41.60
2018-04-17T05:37:37.764Z,39.03
2018-04-17T05:40:06.416Z,34.33
2018-04-17T05:42:35.069Z,39.73
2018-04-17T05:45:03.709Z,38.27
2018-04-17T05:47:32.343Z,39.63
2018-04-17T05:50:01.088Z,40.50
2018-04-17T05:52:29.771Z,36.63
2018-04-17T05:54:58.365Z,37.67
2018-04-17T05:57:26.998Z,46.78
2018-04-17T05:59:55.778Z,37.33
2018-04-17T06:02:24.417Z,39.30
2018-04-17T06:04:53.017Z,39.17
2018-04-17T06:07:21.645Z,38.23
2018-04-17T06:09:50.254Z,35.13
2018-04-17T06:12:18.850Z,37.90
2018-04-17T06:14:47.497Z,40.92
2018-04-17T06:17:16.112Z,37.17
2018-04-17T06:19:44.760Z,36.63
2018-04-17T06:22:13.368Z,36.33
2018-04-17T06:24:42.013Z,37.17
2018-04-17T06:27:10.614Z,38.97
2018-04-17T06:29:39.253Z,35.17
2018-04-17T06:32:07.861Z,34.50
2018-04-17T06:34:36.500Z,30.13
2018-04-17T06:37:05.105Z,32.60
2018-04-17T06:39:33.742Z,32.30
2018-04-17T06:42:02.369Z,33.13
2018-04-17T06:44:30.983Z,33.40
2018-04-17T06:46:59.588Z,37.65
2018-04-17T06:49:28.222Z,30.53
2018-04-17T06:51:56.828Z,31.53
2018-04-17T06:54:25.476Z,30.77
2018-04-17T06:56:54.074Z,31.53
2018-04-17T06:59:24.964Z,34.33
2018-04-17T07:01:53.579Z,31.47
2018-04-17T07:04:22.190Z,30.73
2018-04-17T07:06:50.843Z,31.47
2018-04-17T07:09:19.450Z,31.47
2018-04-17T07:11:48.089Z,30.57
2018-04-17T07:14:16.689Z,31.00
2018-04-17T07:16:45.327Z,28.80
2018-04-17T07:19:13.934Z,33.10
2018-04-17T07:21:42.575Z,29.77
2018-04-17T07:24:11.192Z,30.47
2018-04-17T07:26:39.834Z,29.57
2018-04-17T07:29:08.459Z,28.63
2018-04-17T07:31:37.105Z,28.63
2018-04-17T07:34:05.716Z,27.83
2018-04-17T07:36:34.351Z,29.67
2018-04-17T07:39:02.960Z,26.43
2018-04-17T07:41:31.596Z,25.80
2018-04-17T07:44:00.212Z,25.27
2018-04-17T07:46:28.877Z,24.47
2018-04-17T07:49:06.350Z,23.70
2018-04-17T07:51:35.053Z,24.90
2018-04-17T07:54:03.713Z,23.65
2018-04-17T07:56:32.335Z,24.25
2018-04-17T07:59:00.968Z,24.48
2018-04-17T08:01:29.614Z,27.48
2018-04-17T08:03:58.268Z,24.67
2018-04-17T08:06:26.917Z,23.83
2018-04-17T08:08:55.563Z,23.40
2018-04-17T08:11:24.195Z,23.62
2018-04-17T08:13:52.880Z,26.12
2018-04-17T08:16:21.521Z,24.95
2018-04-17T08:18:50.197Z,19.95
2018-04-17T08:21:18.818Z,23.12
2018-04-17T08:23:47.466Z,20.60
2018-04-17T08:26:16.102Z,20.10
2018-04-17T08:28:44.747Z,17.67
2018-04-17T08:31:13.383Z,18.10
2018-04-17T08:33:42.019Z,18.73
2018-04-17T08:36:10.652Z,18.98
2018-04-17T08:38:39.294Z,21.92
2018-04-17T08:41:07.935Z,18.40
2018-04-17T08:43:36.530Z,15.80
2018-04-17T08:46:05.188Z,17.58
2018-04-17T08:48:33.811Z,15.35
2018-04-17T08:51:02.450Z,17.02
2018-04-17T08:53:31.081Z,15.68
2018-04-17T08:55:59.716Z,14.45
2018-04-17T08:58:28.327Z,15.07
2018-04-17T09:00:56.977Z,18.25
2018-04-17T09:03:25.583Z,14.13
2018-04-17T09:05:54.219Z,16.65
2018-04-17T09:08:22.825Z,15.45
2018-04-17T09:10:51.471Z,16.23
2018-04-17T09:13:20.098Z,15.73
2018-04-17T09:15:48.730Z,17.12
2018-04-17T09:18:17.366Z,17.98
2018-04-17T09:20:46.003Z,17.12
2018-04-17T09:23:14.611Z,16.85
2018-04-17T09:25:43.262Z,15.63
2018-04-17T09:28:12.820Z,17.85
2018-04-17T09:30:41.435Z,18.70
2018-04-17T09:33:10.128Z,18.00
2018-04-17T09:35:38.908Z,16.15
2018-04-17T09:38:07.547Z,17.92
2018-04-17T09:40:36.181Z,17.48
2018-04-17T09:43:04.885Z,18.08
2018-04-17T09:45:33.427Z,15.95
2018-04-17T09:48:02.063Z,16.70
2018-04-17T09:50:30.922Z,15.38
2018-04-17T09:52:59.511Z,16.00
2018-04-17T09:55:28.118Z,14.52
2018-04-17T09:57:56.753Z,15.63
2018-04-17T10:00:25.367Z,15.15
2018-04-17T10:02:54.022Z,15.25
2018-04-17T10:05:22.630Z,13.23
2018-04-17T10:07:51.309Z,13.38
2018-04-17T10:10:19.919Z,12.27
2018-04-17T10:12:48.574Z,10.82
2018-04-17T10:15:17.181Z,9.73
2018-04-17T10:17:45.836Z,10.88
2018-04-17T10:20:15.329Z,13.77
2018-04-17T10:22:43.939Z,13.20
2018-04-17T10:25:12.584Z,11.65
2018-04-17T10:27:41.183Z,14.15
2018-04-17T10:30:09.836Z,12.90
2018-04-17T10:32:38.441Z,11.20
2018-04-17T10:35:07.092Z,12.52
2018-04-17T10:37:35.722Z,14.07
2018-04-17T10:40:04.380Z,10.63
2018-04-17T10:42:33.008Z,10.18
2018-04-17T10:45:01.656Z,11.98
2018-04-17T10:47:30.275Z,12.98
2018-04-17T10:49:58.923Z,13.57
2018-04-17T10:52:27.564Z,13.38
2018-04-17T10:54:56.231Z,12.48
2018-04-17T10:57:24.841Z,13.60
2018-04-17T10:59:53.492Z,12.48
2018-04-17T11:02:22.124Z,12.23
2018-04-17T11:04:50.842Z,12.20
2018-04-17T11:07:19.384Z,13.98
2018-04-17T11:09:48.007Z,12.07
2018-04-17T11:12:16.642Z,13.00
2018-04-17T11:14:45.280Z,11.40
2018-04-17T11:17:13.953Z,12.90
2018-04-17T11:19:42.566Z,14.23
2018-04-17T11:22:11.203Z,13.68
2018-04-17T11:24:39.817Z,14.75
2018-04-17T11:27:08.469Z,12.23
2018-04-17T11:29:37.104Z,13.05
2018-04-17T11:32:05.755Z,13.20
2018-04-17T11:34:34.404Z,14.10
2018-04-17T11:37:03.039Z,13.45
2018-04-17T11:39:31.659Z,12.27
2018-04-17T11:42:00.312Z,13.20
2018-04-17T11:44:28.928Z,13.18
2018-04-17T11:46:57.567Z,10.57
2018-04-17T11:49:26.201Z,10.82
2018-04-17T11:51:54.886Z,12.05
2018-04-17T11:54:23.503Z,11.30
2018-04-17T11:56:52.129Z,12.20
2018-04-17T11:59:20.772Z,11.27
2018-04-17T12:01:51.637Z,11.77
2018-04-17T12:04:20.258Z,11.50
2018-04-17T12:06:48.875Z,10.77
2018-04-17T12:09:17.521Z,11.98
2018-04-17T12:11:46.139Z,11.20
2018-04-17T12:14:14.788Z,11.75
2018-04-17T12:16:43.427Z,14.90
2018-04-17T12:19:12.068Z,15.02
2018-04-17T12:21:40.695Z,14.75
2018-04-17T12:24:09.340Z,14.40
2018-04-17T12:26:37.959Z,15.75
2018-04-17T12:29:06.601Z,12.40
2018-04-17T12:31:35.227Z,14.80
2018-04-17T12:34:03.911Z,13.73
2018-04-17T12:36:32.487Z,14.68
2018-04-17T12:39:01.131Z,14.80
2018-04-17T12:41:29.763Z,13.73
2018-04-17T12:43:58.419Z,13.65
2018-04-17T12:46:27.043Z,12.77
2018-04-17T12:48:55.699Z,13.77
2018-04-17T12:51:24.317Z,13.02
2018-04-17T12:53:52.969Z,12.73
2018-04-17T12:56:21.604Z,14.07
2018-04-17T12:58:50.243Z,13.73
2018-04-17T13:01:18.892Z,14.27
2018-04-17T13:03:47.517Z,14.98
2018-04-17T13:06:16.160Z,15.15
2018-04-17T13:08:44.838Z,14.73
2018-04-17T13:11:13.472Z,15.00
2018-04-17T13:13:42.106Z,15.13
2018-04-17T13:16:10.765Z,15.35
2018-04-17T13:18:39.424Z,15.48
2018-04-17T13:21:08.084Z,15.70
2018-04-17T13:23:36.698Z,15.02
2018-04-17T13:26:05.363Z,15.63
2018-04-17T13:28:33.967Z,16.52
2018-04-17T13:31:02.632Z,16.67
2018-04-17T13:33:31.239Z,15.90
2018-04-17T13:35:59.911Z,15.25
2018-04-17T13:38:28.526Z,17.02
2018-04-17T13:40:57.131Z,16.40
2018-04-17T13:43:25.793Z,17.40
2018-04-17T13:45:54.408Z,16.65
2018-04-17T13:48:23.059Z,16.85
2018-04-17T13:50:52.591Z,16.00
2018-04-17T13:53:21.223Z,17.05
2018-04-17T13:55:49.861Z,16.92
2018-04-17T13:58:18.525Z,15.85
2018-04-17T14:00:47.169Z,15.65
2018-04-17T14:03:16.493Z,16.75
2018-04-17T14:05:45.060Z,16.95
2018-04-17T14:08:17.016Z,15.85
2018-04-17T14:10:45.618Z,17.27
2018-04-17T14:13:14.271Z,16.90
2018-04-17T14:15:43.507Z,17.37
2018-04-17T14:18:12.079Z,17.15
2018-04-17T14:20:40.741Z,17.42
2018-04-17T14:23:09.398Z,16.48
2018-04-17T14:25:38.367Z,17.33
2018-04-17T14:28:07.245Z,17.70
2018-04-17T14:30:36.743Z,18.92
2018-04-17T14:33:05.686Z,14.87
2018-04-17T14:35:34.887Z,14.52
2018-04-17T14:38:03.509Z,13.70
2018-04-17T14:40:33.828Z,16.02
2018-04-17T14:43:03.225Z,15.73
2018-04-17T14:45:36.340Z,16.85
2018-04-17T14:48:11.821Z,15.85
2018-04-17T14:50:41.299Z,14.00
2018-04-17T14:53:09.966Z,15.15
2018-04-17T14:55:39.255Z,15.32
2018-04-17T14:58:13.755Z,16.12
2018-04-17T15:00:44.619Z,16.55
2018-04-17T15:03:15.375Z,16.33
2018-04-17T15:05:50.027Z,17.42
2018-04-17T15:08:26.260Z,18.17
2018-04-17T15:10:57.668Z,17.20
2018-04-17T15:13:30.751Z,16.73
2018-04-17T15:16:00.844Z,18.25
2018-04-17T15:18:29.816Z,17.62
2018-04-17T15:21:00.201Z,18.00
2018-04-17T15:26:16.558Z,18.65
2018-04-17T15:28:45.798Z,17.65
2018-04-17T15:31:14.725Z,17.27
2018-04-17T15:36:36.877Z,22.33
2018-04-17T15:39:08.227Z,20.70
2018-04-17T15:41:40.885Z,23.40
2018-04-17T15:44:10.121Z,20.98
2018-04-17T15:49:36.555Z,21.23
2018-04-17T15:52:12.602Z,21.48
2018-04-17T15:54:48.335Z,21.83
2018-04-17T15:57:16.962Z,21.42
2018-04-17T15:59:45.758Z,20.95
2018-04-17T16:02:14.374Z,21.77
2018-04-17T16:04:43.016Z,20.52
2018-04-17T16:07:11.611Z,19.02
2018-04-17T16:09:45.168Z,18.95
2018-04-17T16:12:14.494Z,19.62
2018-04-17T16:14:43.571Z,20.98
2018-04-17T16:17:12.056Z,20.80
2018-04-17T16:19:41.107Z,19.85
2018-04-17T16:22:09.799Z,21.80
2018-04-17T16:24:38.690Z,20.98
2018-04-17T16:27:09.679Z,21.12
2018-04-17T16:29:39.916Z,19.75
2018-04-17T16:32:08.761Z,21.20
2018-04-17T16:34:37.587Z,21.52
2018-04-17T16:37:06.397Z,22.40
2018-04-17T16:39:39.606Z,22.25
2018-04-17T16:42:08.670Z,23.98
2018-04-17T16:44:37.231Z,24.55
2018-04-17T16:47:06.292Z,23.85
2018-04-17T16:49:34.971Z,24.00
2018-04-17T16:52:04.081Z,24.17
2018-04-17T16:54:33.826Z,25.45
2018-04-17T16:57:02.996Z,25.67
2018-04-17T16:59:33.119Z,25.70
2018-04-17T17:02:14.036Z,26.08
2018-04-17T17:04:42.904Z,28.02
2018-04-17T17:07:11.641Z,27.55
2018-04-17T17:09:40.620Z,27.60
2018-04-17T17:12:09.234Z,27.17
2018-04-17T17:14:37.840Z,27.65
2018-04-17T17:17:08.576Z,27.25
2018-04-17T17:19:37.184Z,28.95
2018-04-17T17:22:05.826Z,28.08
2018-04-17T17:24:34.430Z,29.12
2018-04-17T17:27:03.123Z,30.10
2018-04-17T17:29:31.672Z,31.95
2018-04-17T17:32:00.965Z,33.20
2018-04-17T17:34:30.945Z,35.08
2018-04-17T17:37:00.206Z,38.03
2018-04-17T17:39:29.535Z,35.65
2018-04-17T17:41:58.529Z,34.92
2018-04-17T17:44:28.741Z,33.45
2018-04-17T17:46:59.045Z,36.45
2018-04-17T17:49:27.842Z,35.05
2018-04-17T17:51:56.703Z,33.70
2018-04-17T17:54:31.549Z,34.03
2018-04-17T17:57:03.643Z,33.13
2018-04-17T17:59:43.018Z,29.25
2018-04-17T18:02:11.954Z,36.10
2018-04-17T18:04:42.121Z,33.05
2018-04-17T18:07:10.985Z,40.25
2018-04-17T18:09:43.709Z,39.78
2018-04-17T18:12:29.733Z,43.97
2018-04-17T18:17:47.377Z,33.72
2018-04-17T18:20:24.029Z,34.63
2018-04-17T18:22:52.916Z,37.77
2018-04-17T18:25:21.904Z,33.20
2018-04-17T18:27:51.930Z,37.33
2018-04-17T18:30:22.357Z,36.33
2018-04-17T18:32:51.271Z,36.57
2018-04-17T18:35:21.105Z,29.93
2018-04-17T18:37:51.328Z,34.27
2018-04-17T18:40:21.650Z,37.43
2018-04-17T18:42:50.556Z,39.10
2018-04-17T18:45:20.405Z,42.95
2018-04-17T18:47:50.306Z,37.10
2018-04-17T18:50:19.206Z,38.83
2018-04-17T18:52:48.048Z,39.57
2018-04-17T18:55:16.969Z,40.37
2018-04-17T18:57:51.022Z,33.20
2018-04-17T19:00:20.876Z,38.67
2018-04-17T19:02:50.932Z,39.50
2018-04-17T19:05:20.293Z,40.45
2018-04-17T19:07:50.478Z,39.80
2018-04-17T19:10:20.595Z,36.37
2018-04-17T19:12:49.564Z,33.60
2018-04-17T19:15:20.867Z,38.10
2018-04-17T19:17:49.802Z,37.60
2018-04-17T19:20:18.654Z,36.70
2018-04-17T19:22:47.528Z,38.80
2018-04-17T19:25:16.365Z,40.50
2018-04-17T19:27:45.289Z,30.83
2018-04-17T19:30:14.161Z,33.03
2018-04-17T19:32:43.723Z,34.57
2018-04-17T19:35:17.197Z,36.07
2018-04-17T19:37:46.121Z,32.07
2018-04-17T19:40:15.330Z,32.60
2018-04-17T19:42:44.656Z,31.80
2018-04-17T19:45:13.904Z,34.60
2018-04-17T19:47:43.283Z,36.50
2018-04-17T19:50:12.214Z,35.27
2018-04-17T19:52:40.916Z,33.60
2018-04-17T19:55:10.022Z,34.83
2018-04-17T19:57:38.975Z,35.57
2018-04-17T20:00:07.812Z,34.70
2018-04-17T20:02:37.120Z,38.20
2018-04-17T20:05:08.729Z,39.43
2018-04-17T20:07:37.603Z,34.80
2018-04-17T20:10:10.272Z,49.83
2018-04-17T20:12:39.219Z,41.83
2018-04-17T20:15:10.383Z,42.03
2018-04-17T20:17:44.910Z,36.70
2018-04-17T20:20:16.462Z,37.37
2018-04-17T20:22:46.481Z,36.50
2018-04-17T20:25:18.203Z,37.23
2018-04-17T20:27:47.096Z,40.83
2018-04-17T20:30:16.064Z,37.83
2018-04-17T20:32:47.243Z,43.80
2018-04-17T20:35:16.198Z,56.70
2018-04-17T20:37:47.654Z,50.33
2018-04-17T20:40:18.139Z,57.10
2018-04-17T20:42:47.104Z,59.72
2018-04-17T20:45:19.043Z,47.47
2018-04-17T20:47:48.001Z,53.47
2018-04-17T20:50:34.599Z,58.90
2018-04-17T20:53:03.642Z,55.27
2018-04-17T20:55:32.773Z,53.37
2018-04-17T20:58:01.540Z,46.77
2018-04-17T21:00:39.599Z,39.20
2018-04-17T21:03:08.765Z,35.77
2018-04-17T21:05:39.119Z,47.93
2018-04-17T21:08:09.517Z,34.97
2018-04-17T21:10:41.186Z,34.97
2018-04-17T21:13:13.114Z,40.27
2018-04-17T21:15:42.059Z,46.15
2018-04-17T21:20:50.319Z,34.97
2018-04-17T21:23:18.935Z,42.10
2018-04-17T21:25:47.592Z,48.13
2018-04-17T21:28:16.727Z,42.90
2018-04-17T21:30:45.333Z,49.90
2018-04-17T21:33:13.964Z,46.33
2018-04-17T21:35:42.567Z,39.03
2018-04-17T21:38:11.215Z,66.20
2018-04-17T21:40:39.832Z,51.90
2018-04-17T21:43:08.466Z,50.30
2018-04-17T21:45:37.072Z,48.60
2018-04-17T21:48:05.713Z,51.97
2018-04-17T21:50:34.341Z,68.95
2018-04-17T21:53:02.985Z,56.73
2018-04-17T21:55:31.592Z,67.00
2018-04-17T21:58:00.231Z,51.40
2018-04-17T22:00:28.840Z,48.73
2018-04-17T22:02:57.481Z,49.43
2018-04-17T22:05:26.094Z,54.53
2018-04-17T22:07:54.740Z,50.30
2018-04-17T22:10:23.355Z,55.43
2018-04-17T22:12:51.971Z,49.97
2018-04-17T22:15:20.611Z,54.30
2018-04-17T22:17:49.216Z,51.97
2018-04-17T22:20:17.865Z,52.87
2018-04-17T22:22:46.460Z,50.90
2018-04-17T22:25:15.104Z,57.57
2018-04-17T22:27:43.710Z,46.47
2018-04-17T22:30:12.348Z,50.60
2018-04-17T22:32:40.961Z,67.37
2018-04-17T22:35:09.615Z,53.67
2018-04-17T22:37:38.219Z,50.93
2018-04-17T22:40:06.855Z,48.53
2018-04-17T22:42:35.468Z,48.17
2018-04-17T22:45:04.107Z,46.57
2018-04-17T22:47:32.705Z,48.97
2018-04-17T22:50:01.374Z,65.25
2018-04-17T22:52:29.974Z,64.70
2018-04-17T22:54:58.617Z,51.70
2018-04-17T22:57:27.223Z,49.47
2018-04-17T22:59:55.859Z,40.60
2018-04-17T23:02:24.493Z,42.30
2018-04-17T23:04:53.097Z,49.00
2018-04-17T23:07:21.736Z,58.70
2018-04-17T23:09:50.349Z,53.70
2018-04-17T23:12:18.999Z,59.58
2018-04-17T23:14:47.616Z,59.90
2018-04-17T23:17:16.251Z,44.50
2018-04-17T23:19:44.856Z,43.77
2018-04-17T23:22:16.403Z,33.93
2018-04-17T23:24:45.011Z,37.30
2018-04-17T23:27:13.659Z,42.50
2018-04-17T23:29:42.259Z,41.80
2018-04-17T23:32:10.895Z,34.17
2018-04-17T23:34:39.498Z,46.10
2018-04-17T23:37:08.135Z,43.47
2018-04-17T23:39:36.747Z,43.43
2018-04-17T23:42:05.538Z,33.50
2018-04-17T23:44:34.148Z,41.67
2018-04-17T23:47:02.792Z,43.80
2018-04-17T23:49:31.399Z,43.73
2018-04-17T23:52:00.986Z,33.80
2018-04-17T23:54:29.591Z,44.53
2018-04-17T23:56:58.195Z,48.13
2018-04-17T23:59:31.038Z,43.53
